Airport View

Enter ICAO identifier to see the current METAR for that AWOS.

KFNL for example

KHIB 222253Z AUTO 35009KT 10SM FEW050 SCT065 24/12 A3010

22 Jul 2014 23:37

Frequency: 126.425

Phone: 218-263-8384

Other Area AWOS: KEVM - KCQM - KGPZ - KORB

TAF AMD KHIB 222212Z 2222/2318 34012KT P6SM FEW060 FM230200 VRB05KT P6SM SKC